sensor_id;sensor_type;location;lat;lon;timestamp;P1;durP1;ratioP1;P2;durP2;ratioP2
60436;SDS011;46289;51.992;4.498;2023-08-12T00:02:43;8.10;;;2.83;;
60436;SDS011;46289;51.992;4.498;2023-08-12T00:04:55;6.50;;;3.00;;
60436;SDS011;46289;51.992;4.498;2023-08-12T00:07:17;4.85;;;2.78;;
60436;SDS011;46289;51.992;4.498;2023-08-12T00:09:23;12.45;;;3.63;;
60436;SDS011;46289;51.992;4.498;2023-08-12T00:11:28;6.55;;;2.85;;
60436;SDS011;46289;51.992;4.498;2023-08-12T00:13:34;8.43;;;2.95;;
60436;SDS011;46289;51.992;4.498;2023-08-12T00:15:43;7.05;;;2.90;;
60436;SDS011;46289;51.992;4.498;2023-08-12T00:17:50;6.78;;;2.92;;
60436;SDS011;46289;51.992;4.498;2023-08-12T00:19:57;8.73;;;3.20;;
60436;SDS011;46289;51.992;4.498;2023-08-12T00:22:04;5.88;;;2.92;;
60436;SDS011;46289;51.992;4.498;2023-08-12T00:24:19;8.10;;;3.03;;
60436;SDS011;46289;51.992;4.498;2023-08-12T00:26:24;8.15;;;3.35;;
60436;SDS011;46289;51.992;4.498;2023-08-12T00:28:29;5.20;;;2.70;;
60436;SDS011;46289;51.992;4.498;2023-08-12T00:30:34;6.68;;;2.90;;
60436;SDS011;46289;51.992;4.498;2023-08-12T00:32:39;8.95;;;3.20;;
60436;SDS011;46289;51.992;4.498;2023-08-12T00:34:44;7.15;;;3.60;;
60436;SDS011;46289;51.992;4.498;2023-08-12T00:36:49;6.70;;;3.00;;
60436;SDS011;46289;51.992;4.498;2023-08-12T00:38:55;6.78;;;2.88;;
60436;SDS011;46289;51.992;4.498;2023-08-12T00:41:03;7.70;;;3.45;;
60436;SDS011;46289;51.992;4.498;2023-08-12T00:43:05;7.50;;;3.10;;
60436;SDS011;46289;51.992;4.498;2023-08-12T00:45:11;6.40;;;2.95;;
60436;SDS011;46289;51.992;4.498;2023-08-12T00:47:16;8.15;;;3.28;;
60436;SDS011;46289;51.992;4.498;2023-08-12T00:49:21;6.78;;;2.75;;
60436;SDS011;46289;51.992;4.498;2023-08-12T00:51:25;7.82;;;3.03;;
60436;SDS011;46289;51.992;4.498;2023-08-12T00:53:31;6.05;;;3.20;;
60436;SDS011;46289;51.992;4.498;2023-08-12T00:55:36;6.15;;;2.95;;
60436;SDS011;46289;51.992;4.498;2023-08-12T00:57:44;8.20;;;3.42;;
60436;SDS011;46289;51.992;4.498;2023-08-12T00:59:49;6.18;;;2.80;;
60436;SDS011;46289;51.992;4.498;2023-08-12T01:01:55;6.05;;;2.55;;
60436;SDS011;46289;51.992;4.498;2023-08-12T01:04:02;8.30;;;2.97;;
60436;SDS011;46289;51.992;4.498;2023-08-12T01:06:08;7.18;;;2.92;;
60436;SDS011;46289;51.992;4.498;2023-08-12T01:08:13;9.50;;;3.40;;
60436;SDS011;46289;51.992;4.498;2023-08-12T01:10:16;6.72;;;3.33;;
60436;SDS011;46289;51.992;4.498;2023-08-12T01:12:23;7.50;;;2.90;;
60436;SDS011;46289;51.992;4.498;2023-08-12T01:14:35;8.30;;;2.97;;
60436;SDS011;46289;51.992;4.498;2023-08-12T01:16:47;9.50;;;3.50;;
60436;SDS011;46289;51.992;4.498;2023-08-12T01:18:56;7.18;;;2.80;;
60436;SDS011;46289;51.992;4.498;2023-08-12T01:21:05;6.45;;;3.25;;
60436;SDS011;46289;51.992;4.498;2023-08-12T01:23:17;10.98;;;3.13;;
60436;SDS011;46289;51.992;4.498;2023-08-12T01:25:22;8.43;;;3.22;;
60436;SDS011;46289;51.992;4.498;2023-08-12T01:27:24;9.90;;;3.83;;
60436;SDS011;46289;51.992;4.498;2023-08-12T01:29:30;8.55;;;3.08;;
60436;SDS011;46289;51.992;4.498;2023-08-12T01:31:37;11.00;;;3.47;;
60436;SDS011;46289;51.992;4.498;2023-08-12T01:33:51;9.20;;;3.28;;
60436;SDS011;46289;51.992;4.498;2023-08-12T01:36:01;8.63;;;3.47;;
60436;SDS011;46289;51.992;4.498;2023-08-12T01:38:12;10.68;;;3.85;;
60436;SDS011;46289;51.992;4.498;2023-08-12T01:40:17;9.48;;;3.58;;
60436;SDS011;46289;51.992;4.498;2023-08-12T01:42:26;8.68;;;4.18;;
60436;SDS011;46289;51.992;4.498;2023-08-12T01:44:32;8.60;;;4.20;;
60436;SDS011;46289;51.992;4.498;2023-08-12T01:46:37;12.18;;;4.63;;
60436;SDS011;46289;51.992;4.498;2023-08-12T01:48:42;10.10;;;4.65;;
60436;SDS011;46289;51.992;4.498;2023-08-12T01:50:44;9.13;;;4.65;;
60436;SDS011;46289;51.992;4.498;2023-08-12T01:52:49;9.02;;;3.95;;
60436;SDS011;46289;51.992;4.498;2023-08-12T01:54:55;10.23;;;4.47;;
60436;SDS011;46289;51.992;4.498;2023-08-12T01:57:06;12.95;;;5.07;;
60436;SDS011;46289;51.992;4.498;2023-08-12T01:59:10;9.10;;;4.43;;
60436;SDS011;46289;51.992;4.498;2023-08-12T02:01:15;8.32;;;4.40;;
60436;SDS011;46289;51.992;4.498;2023-08-12T02:03:22;7.53;;;3.85;;
60436;SDS011;46289;51.992;4.498;2023-08-12T02:05:27;10.07;;;4.63;;
60436;SDS011;46289;51.992;4.498;2023-08-12T02:07:32;13.45;;;4.47;;
60436;SDS011;46289;51.992;4.498;2023-08-12T02:09:37;9.35;;;4.25;;
60436;SDS011;46289;51.992;4.498;2023-08-12T02:11:43;9.20;;;4.32;;
60436;SDS011;46289;51.992;4.498;2023-08-12T02:13:52;13.13;;;5.50;;
60436;SDS011;46289;51.992;4.498;2023-08-12T02:15:57;12.73;;;4.10;;
60436;SDS011;46289;51.992;4.498;2023-08-12T02:18:02;11.68;;;4.32;;
60436;SDS011;46289;51.992;4.498;2023-08-12T02:20:09;9.43;;;4.07;;
60436;SDS011;46289;51.992;4.498;2023-08-12T02:22:14;8.95;;;4.60;;
60436;SDS011;46289;51.992;4.498;2023-08-12T02:24:20;11.07;;;4.60;;
60436;SDS011;46289;51.992;4.498;2023-08-12T02:26:25;13.05;;;4.57;;
60436;SDS011;46289;51.992;4.498;2023-08-12T02:28:30;8.90;;;4.85;;
60436;SDS011;46289;51.992;4.498;2023-08-12T02:30:38;9.65;;;4.55;;
60436;SDS011;46289;51.992;4.498;2023-08-12T02:32:43;7.47;;;4.25;;
60436;SDS011;46289;51.992;4.498;2023-08-12T02:34:50;12.23;;;5.25;;
60436;SDS011;46289;51.992;4.498;2023-08-12T02:36:55;12.63;;;5.45;;
60436;SDS011;46289;51.992;4.498;2023-08-12T02:39:00;12.02;;;5.45;;
60436;SDS011;46289;51.992;4.498;2023-08-12T02:41:06;10.20;;;5.00;;
60436;SDS011;46289;51.992;4.498;2023-08-12T02:43:11;9.65;;;4.88;;
60436;SDS011;46289;51.992;4.498;2023-08-12T02:45:16;13.13;;;5.30;;
60436;SDS011;46289;51.992;4.498;2023-08-12T02:47:24;11.35;;;4.97;;
60436;SDS011;46289;51.992;4.498;2023-08-12T02:49:27;9.10;;;4.60;;
60436;SDS011;46289;51.992;4.498;2023-08-12T02:51:32;11.95;;;5.78;;
60436;SDS011;46289;51.992;4.498;2023-08-12T02:53:37;12.05;;;5.63;;
60436;SDS011;46289;51.992;4.498;2023-08-12T02:55:42;11.35;;;4.82;;
60436;SDS011;46289;51.992;4.498;2023-08-12T02:57:49;11.93;;;5.10;;
60436;SDS011;46289;51.992;4.498;2023-08-12T02:59:55;11.18;;;5.22;;
60436;SDS011;46289;51.992;4.498;2023-08-12T03:02:02;12.57;;;5.40;;
60436;SDS011;46289;51.992;4.498;2023-08-12T03:04:13;12.38;;;5.40;;
60436;SDS011;46289;51.992;4.498;2023-08-12T03:06:18;11.00;;;5.10;;
60436;SDS011;46289;51.992;4.498;2023-08-12T03:08:23;12.45;;;5.32;;
60436;SDS011;46289;51.992;4.498;2023-08-12T03:10:28;12.10;;;6.00;;
60436;SDS011;46289;51.992;4.498;2023-08-12T03:12:37;13.60;;;5.97;;
60436;SDS011;46289;51.992;4.498;2023-08-12T03:14:42;15.88;;;6.22;;
60436;SDS011;46289;51.992;4.498;2023-08-12T03:16:44;14.40;;;7.20;;
60436;SDS011;46289;51.992;4.498;2023-08-12T03:18:49;12.85;;;6.72;;
60436;SDS011;46289;51.992;4.498;2023-08-12T03:20:57;13.10;;;6.30;;
60436;SDS011;46289;51.992;4.498;2023-08-12T03:23:00;15.18;;;7.00;;
60436;SDS011;46289;51.992;4.498;2023-08-12T03:25:05;12.48;;;7.18;;
60436;SDS011;46289;51.992;4.498;2023-08-12T03:27:11;15.95;;;7.45;;
60436;SDS011;46289;51.992;4.498;2023-08-12T03:29:16;14.20;;;6.60;;
60436;SDS011;46289;51.992;4.498;2023-08-12T03:31:21;15.88;;;6.90;;
60436;SDS011;46289;51.992;4.498;2023-08-12T03:33:23;13.35;;;6.63;;
60436;SDS011;46289;51.992;4.498;2023-08-12T03:35:30;15.45;;;7.40;;
60436;SDS011;46289;51.992;4.498;2023-08-12T03:37:35;14.23;;;6.68;;
60436;SDS011;46289;51.992;4.498;2023-08-12T03:39:40;16.50;;;8.80;;
60436;SDS011;46289;51.992;4.498;2023-08-12T03:41:45;14.85;;;7.07;;
60436;SDS011;46289;51.992;4.498;2023-08-12T03:43:52;14.43;;;7.20;;
60436;SDS011;46289;51.992;4.498;2023-08-12T03:45:57;15.65;;;8.57;;
60436;SDS011;46289;51.992;4.498;2023-08-12T03:48:03;16.25;;;7.97;;
60436;SDS011;46289;51.992;4.498;2023-08-12T03:50:09;15.68;;;8.30;;
60436;SDS011;46289;51.992;4.498;2023-08-12T03:52:12;15.50;;;7.03;;
60436;SDS011;46289;51.992;4.498;2023-08-12T03:54:20;17.13;;;7.05;;
60436;SDS011;46289;51.992;4.498;2023-08-12T03:56:27;15.68;;;7.45;;
60436;SDS011;46289;51.992;4.498;2023-08-12T03:58:32;15.57;;;8.70;;
60436;SDS011;46289;51.992;4.498;2023-08-12T04:00:40;16.38;;;8.30;;
60436;SDS011;46289;51.992;4.498;2023-08-12T04:02:46;17.73;;;7.95;;
60436;SDS011;46289;51.992;4.498;2023-08-12T04:04:53;16.50;;;7.90;;
60436;SDS011;46289;51.992;4.498;2023-08-12T04:06:58;15.65;;;7.55;;
60436;SDS011;46289;51.992;4.498;2023-08-12T04:09:05;14.23;;;7.43;;
60436;SDS011;46289;51.992;4.498;2023-08-12T04:11:12;17.52;;;8.43;;
60436;SDS011;46289;51.992;4.498;2023-08-12T04:13:18;15.73;;;7.75;;
60436;SDS011;46289;51.992;4.498;2023-08-12T04:15:26;18.63;;;8.25;;
60436;SDS011;46289;51.992;4.498;2023-08-12T04:17:34;13.60;;;7.10;;
60436;SDS011;46289;51.992;4.498;2023-08-12T04:19:52;20.23;;;8.02;;
60436;SDS011;46289;51.992;4.498;2023-08-12T04:22:21;15.43;;;7.40;;
60436;SDS011;46289;51.992;4.498;2023-08-12T04:24:26;15.30;;;8.65;;
60436;SDS011;46289;51.992;4.498;2023-08-12T04:26:33;13.65;;;7.18;;
60436;SDS011;46289;51.992;4.498;2023-08-12T04:28:38;15.45;;;7.80;;
60436;SDS011;46289;51.992;4.498;2023-08-12T04:30:47;15.88;;;8.63;;
60436;SDS011;46289;51.992;4.498;2023-08-12T04:32:54;12.70;;;7.20;;
60436;SDS011;46289;51.992;4.498;2023-08-12T04:35:00;13.10;;;7.53;;
60436;SDS011;46289;51.992;4.498;2023-08-12T04:37:06;15.40;;;8.63;;
60436;SDS011;46289;51.992;4.498;2023-08-12T04:39:12;19.92;;;9.13;;
60436;SDS011;46289;51.992;4.498;2023-08-12T04:41:20;15.65;;;7.18;;
60436;SDS011;46289;51.992;4.498;2023-08-12T04:43:28;15.18;;;8.70;;
60436;SDS011;46289;51.992;4.498;2023-08-12T04:45:36;21.15;;;9.43;;
60436;SDS011;46289;51.992;4.498;2023-08-12T04:47:42;16.83;;;8.85;;
60436;SDS011;46289;51.992;4.498;2023-08-12T04:49:50;14.70;;;7.57;;
60436;SDS011;46289;51.992;4.498;2023-08-12T04:51:57;18.50;;;9.73;;
60436;SDS011;46289;51.992;4.498;2023-08-12T04:54:04;16.92;;;8.48;;
60436;SDS011;46289;51.992;4.498;2023-08-12T04:56:07;18.33;;;8.30;;
60436;SDS011;46289;51.992;4.498;2023-08-12T04:58:12;14.88;;;8.60;;
60436;SDS011;46289;51.992;4.498;2023-08-12T05:00:23;18.60;;;8.73;;
60436;SDS011;46289;51.992;4.498;2023-08-12T05:02:31;18.20;;;9.70;;
60436;SDS011;46289;51.992;4.498;2023-08-12T05:04:46;18.92;;;9.95;;
60436;SDS011;46289;51.992;4.498;2023-08-12T05:06:56;21.60;;;9.35;;
60436;SDS011;46289;51.992;4.498;2023-08-12T05:09:04;20.83;;;9.80;;
60436;SDS011;46289;51.992;4.498;2023-08-12T05:11:16;22.40;;;11.32;;
60436;SDS011;46289;51.992;4.498;2023-08-12T05:13:24;21.90;;;9.32;;
60436;SDS011;46289;51.992;4.498;2023-08-12T05:15:32;20.60;;;10.20;;
60436;SDS011;46289;51.992;4.498;2023-08-12T05:17:42;22.90;;;10.45;;
60436;SDS011;46289;51.992;4.498;2023-08-12T05:19:49;20.05;;;10.30;;
60436;SDS011;46289;51.992;4.498;2023-08-12T05:21:54;21.40;;;9.20;;
60436;SDS011;46289;51.992;4.498;2023-08-12T05:23:59;19.33;;;10.02;;
60436;SDS011;46289;51.992;4.498;2023-08-12T05:26:07;22.15;;;10.13;;
60436;SDS011;46289;51.992;4.498;2023-08-12T05:28:09;23.58;;;10.70;;
60436;SDS011;46289;51.992;4.498;2023-08-12T05:30:19;19.65;;;9.90;;
60436;SDS011;46289;51.992;4.498;2023-08-12T05:32:27;21.70;;;10.93;;
60436;SDS011;46289;51.992;4.498;2023-08-12T05:34:34;19.90;;;9.68;;
60436;SDS011;46289;51.992;4.498;2023-08-12T05:36:48;20.80;;;10.70;;
60436;SDS011;46289;51.992;4.498;2023-08-12T05:38:55;19.85;;;9.80;;
60436;SDS011;46289;51.992;4.498;2023-08-12T05:41:03;18.92;;;10.13;;
60436;SDS011;46289;51.992;4.498;2023-08-12T05:43:09;18.48;;;10.95;;
60436;SDS011;46289;51.992;4.498;2023-08-12T05:45:14;21.67;;;10.60;;
60436;SDS011;46289;51.992;4.498;2023-08-12T05:47:19;21.65;;;9.95;;
60436;SDS011;46289;51.992;4.498;2023-08-12T05:49:28;20.08;;;9.52;;
60436;SDS011;46289;51.992;4.498;2023-08-12T05:51:34;17.60;;;9.27;;
60436;SDS011;46289;51.992;4.498;2023-08-12T05:53:47;18.05;;;8.35;;
60436;SDS011;46289;51.992;4.498;2023-08-12T05:55:55;16.23;;;7.82;;
60436;SDS011;46289;51.992;4.498;2023-08-12T05:58:01;17.20;;;7.65;;
60436;SDS011;46289;51.992;4.498;2023-08-12T06:00:06;13.02;;;6.72;;
60436;SDS011;46289;51.992;4.498;2023-08-12T06:02:21;13.32;;;6.80;;
60436;SDS011;46289;51.992;4.498;2023-08-12T06:04:34;13.57;;;7.22;;
60436;SDS011;46289;51.992;4.498;2023-08-12T06:09:02;12.65;;;6.03;;
60436;SDS011;46289;51.992;4.498;2023-08-12T06:11:07;13.65;;;6.85;;
60436;SDS011;46289;51.992;4.498;2023-08-12T06:13:11;12.73;;;5.03;;
60436;SDS011;46289;51.992;4.498;2023-08-12T06:15:21;11.20;;;5.93;;
60436;SDS011;46289;51.992;4.498;2023-08-12T06:17:27;10.05;;;4.90;;
60436;SDS011;46289;51.992;4.498;2023-08-12T06:19:36;9.13;;;4.40;;
60436;SDS011;46289;51.992;4.498;2023-08-12T06:21:44;9.18;;;4.43;;
60436;SDS011;46289;51.992;4.498;2023-08-12T06:23:55;9.40;;;4.53;;
60436;SDS011;46289;51.992;4.498;2023-08-12T06:26:06;8.00;;;3.67;;
60436;SDS011;46289;51.992;4.498;2023-08-12T06:28:16;11.35;;;4.70;;
60436;SDS011;46289;51.992;4.498;2023-08-12T06:30:21;9.45;;;4.55;;
60436;SDS011;46289;51.992;4.498;2023-08-12T06:32:33;8.18;;;4.13;;
60436;SDS011;46289;51.992;4.498;2023-08-12T06:34:44;7.28;;;3.35;;
60436;SDS011;46289;51.992;4.498;2023-08-12T06:36:49;6.82;;;3.90;;
60436;SDS011;46289;51.992;4.498;2023-08-12T06:38:54;8.23;;;4.18;;
60436;SDS011;46289;51.992;4.498;2023-08-12T06:40:59;7.88;;;3.70;;
60436;SDS011;46289;51.992;4.498;2023-08-12T06:43:05;8.20;;;4.60;;
60436;SDS011;46289;51.992;4.498;2023-08-12T06:45:11;6.43;;;3.47;;
60436;SDS011;46289;51.992;4.498;2023-08-12T06:47:16;9.02;;;3.42;;
60436;SDS011;46289;51.992;4.498;2023-08-12T06:49:20;8.57;;;3.90;;
60436;SDS011;46289;51.992;4.498;2023-08-12T06:51:27;6.75;;;3.42;;
60436;SDS011;46289;51.992;4.498;2023-08-12T06:53:35;8.20;;;3.78;;
60436;SDS011;46289;51.992;4.498;2023-08-12T06:55:43;8.40;;;3.78;;
60436;SDS011;46289;51.992;4.498;2023-08-12T06:57:51;9.63;;;3.85;;
60436;SDS011;46289;51.992;4.498;2023-08-12T06:59:56;7.22;;;3.55;;
60436;SDS011;46289;51.992;4.498;2023-08-12T07:01:58;6.05;;;3.30;;
60436;SDS011;46289;51.992;4.498;2023-08-12T07:04:06;7.05;;;3.50;;
60436;SDS011;46289;51.992;4.498;2023-08-12T07:06:11;5.78;;;3.50;;
60436;SDS011;46289;51.992;4.498;2023-08-12T07:08:19;4.68;;;2.42;;
60436;SDS011;46289;51.992;4.498;2023-08-12T07:10:23;5.45;;;2.80;;
60436;SDS011;46289;51.992;4.498;2023-08-12T07:12:30;5.78;;;2.17;;
60436;SDS011;46289;51.992;4.498;2023-08-12T07:14:35;5.47;;;2.15;;
60436;SDS011;46289;51.992;4.498;2023-08-12T07:16:40;5.93;;;2.70;;
60436;SDS011;46289;51.992;4.498;2023-08-12T07:18:45;5.70;;;2.15;;
60436;SDS011;46289;51.992;4.498;2023-08-12T07:20:50;6.82;;;2.13;;
60436;SDS011;46289;51.992;4.498;2023-08-12T07:22:55;4.70;;;1.75;;
60436;SDS011;46289;51.992;4.498;2023-08-12T07:25:03;5.95;;;1.90;;
60436;SDS011;46289;51.992;4.498;2023-08-12T07:27:17;5.20;;;2.22;;
60436;SDS011;46289;51.992;4.498;2023-08-12T07:29:40;5.40;;;1.95;;
60436;SDS011;46289;51.992;4.498;2023-08-12T07:32:28;5.72;;;2.47;;
60436;SDS011;46289;51.992;4.498;2023-08-12T07:34:30;5.97;;;2.00;;
60436;SDS011;46289;51.992;4.498;2023-08-12T07:37:03;3.38;;;1.63;;
60436;SDS011;46289;51.992;4.498;2023-08-12T07:39:26;4.22;;;1.80;;
60436;SDS011;46289;51.992;4.498;2023-08-12T07:41:34;5.40;;;2.20;;
60436;SDS011;46289;51.992;4.498;2023-08-12T07:43:39;4.93;;;1.98;;
60436;SDS011;46289;51.992;4.498;2023-08-12T07:48:11;4.43;;;1.83;;
60436;SDS011;46289;51.992;4.498;2023-08-12T07:50:16;6.47;;;2.25;;
60436;SDS011;46289;51.992;4.498;2023-08-12T07:52:24;6.45;;;2.17;;
60436;SDS011;46289;51.992;4.498;2023-08-12T07:54:30;4.40;;;1.77;;
60436;SDS011;46289;51.992;4.498;2023-08-12T07:56:40;5.07;;;2.05;;
60436;SDS011;46289;51.992;4.498;2023-08-12T07:58:45;6.93;;;2.15;;
60436;SDS011;46289;51.992;4.498;2023-08-12T08:00:58;7.13;;;2.83;;
60436;SDS011;46289;51.992;4.498;2023-08-12T08:03:04;8.63;;;2.60;;
60436;SDS011;46289;51.992;4.498;2023-08-12T08:05:10;4.28;;;2.22;;
60436;SDS011;46289;51.992;4.498;2023-08-12T08:07:15;4.53;;;2.20;;
60436;SDS011;46289;51.992;4.498;2023-08-12T08:09:34;6.20;;;1.95;;
60436;SDS011;46289;51.992;4.498;2023-08-12T08:11:44;4.57;;;2.33;;
60436;SDS011;46289;51.992;4.498;2023-08-12T08:13:58;6.07;;;2.35;;
60436;SDS011;46289;51.992;4.498;2023-08-12T08:16:07;6.63;;;2.22;;
60436;SDS011;46289;51.992;4.498;2023-08-12T08:18:14;5.03;;;2.50;;
60436;SDS011;46289;51.992;4.498;2023-08-12T08:20:19;7.40;;;2.78;;
60436;SDS011;46289;51.992;4.498;2023-08-12T08:22:24;6.43;;;2.00;;
60436;SDS011;46289;51.992;4.498;2023-08-12T08:24:32;4.35;;;2.10;;
60436;SDS011;46289;51.992;4.498;2023-08-12T08:26:39;7.05;;;2.72;;
60436;SDS011;46289;51.992;4.498;2023-08-12T08:28:49;7.28;;;2.35;;
60436;SDS011;46289;51.992;4.498;2023-08-12T08:30:55;7.40;;;2.30;;
60436;SDS011;46289;51.992;4.498;2023-08-12T08:33:00;7.85;;;2.88;;
60436;SDS011;46289;51.992;4.498;2023-08-12T08:35:10;5.13;;;2.53;;
60436;SDS011;46289;51.992;4.498;2023-08-12T08:37:18;7.22;;;2.75;;
60436;SDS011;46289;51.992;4.498;2023-08-12T08:39:26;7.45;;;2.60;;
60436;SDS011;46289;51.992;4.498;2023-08-12T08:41:29;6.93;;;2.40;;
60436;SDS011;46289;51.992;4.498;2023-08-12T08:43:38;5.90;;;2.47;;
60436;SDS011;46289;51.992;4.498;2023-08-12T08:45:52;5.82;;;2.55;;
60436;SDS011;46289;51.992;4.498;2023-08-12T08:48:01;7.70;;;3.03;;
60436;SDS011;46289;51.992;4.498;2023-08-12T08:50:24;5.35;;;2.55;;
60436;SDS011;46289;51.992;4.498;2023-08-12T08:52:33;6.05;;;2.70;;
60436;SDS011;46289;51.992;4.498;2023-08-12T08:54:39;8.43;;;2.90;;
60436;SDS011;46289;51.992;4.498;2023-08-12T08:56:47;5.60;;;2.63;;
60436;SDS011;46289;51.992;4.498;2023-08-12T08:58:59;9.48;;;2.97;;
60436;SDS011;46289;51.992;4.498;2023-08-12T09:01:11;6.88;;;3.22;;
60436;SDS011;46289;51.992;4.498;2023-08-12T09:03:20;6.75;;;2.50;;
60436;SDS011;46289;51.992;4.498;2023-08-12T09:05:28;7.80;;;2.90;;
60436;SDS011;46289;51.992;4.498;2023-08-12T09:07:37;8.00;;;3.20;;
60436;SDS011;46289;51.992;4.498;2023-08-12T09:09:49;13.18;;;3.33;;
60436;SDS011;46289;51.992;4.498;2023-08-12T09:11:57;6.78;;;2.33;;
60436;SDS011;46289;51.992;4.498;2023-08-12T09:14:02;6.80;;;2.20;;
60436;SDS011;46289;51.992;4.498;2023-08-12T09:16:20;6.78;;;2.70;;
60436;SDS011;46289;51.992;4.498;2023-08-12T09:18:54;7.20;;;2.55;;
60436;SDS011;46289;51.992;4.498;2023-08-12T09:21:00;8.25;;;2.70;;
60436;SDS011;46289;51.992;4.498;2023-08-12T09:23:07;7.25;;;2.25;;
60436;SDS011;46289;51.992;4.498;2023-08-12T09:25:12;4.90;;;2.53;;
60436;SDS011;46289;51.992;4.498;2023-08-12T09:27:17;5.97;;;2.25;;
60436;SDS011;46289;51.992;4.498;2023-08-12T09:29:22;3.67;;;2.05;;
60436;SDS011;46289;51.992;4.498;2023-08-12T09:31:31;5.63;;;2.30;;
60436;SDS011;46289;51.992;4.498;2023-08-12T09:33:38;4.95;;;2.65;;
60436;SDS011;46289;51.992;4.498;2023-08-12T09:35:43;7.50;;;2.00;;
60436;SDS011;46289;51.992;4.498;2023-08-12T09:37:48;7.60;;;2.40;;
60436;SDS011;46289;51.992;4.498;2023-08-12T09:39:51;7.30;;;2.03;;
60436;SDS011;46289;51.992;4.498;2023-08-12T09:41:59;5.82;;;1.80;;
60436;SDS011;46289;51.992;4.498;2023-08-12T09:44:06;5.85;;;2.03;;
60436;SDS011;46289;51.992;4.498;2023-08-12T09:46:21;7.15;;;2.10;;
60436;SDS011;46289;51.992;4.498;2023-08-12T09:48:30;7.35;;;2.10;;
60436;SDS011;46289;51.992;4.498;2023-08-12T09:50:38;4.93;;;1.80;;
60436;SDS011;46289;51.992;4.498;2023-08-12T09:52:43;4.07;;;1.88;;
60436;SDS011;46289;51.992;4.498;2023-08-12T09:54:49;4.38;;;1.70;;
60436;SDS011;46289;51.992;4.498;2023-08-12T09:57:05;6.43;;;1.95;;
60436;SDS011;46289;51.992;4.498;2023-08-12T09:59:16;6.13;;;1.80;;
60436;SDS011;46289;51.992;4.498;2023-08-12T10:01:27;9.13;;;2.20;;
60436;SDS011;46289;51.992;4.498;2023-08-12T10:03:35;6.57;;;2.17;;
60436;SDS011;46289;51.992;4.498;2023-08-12T10:05:46;5.30;;;2.10;;
60436;SDS011;46289;51.992;4.498;2023-08-12T10:07:55;8.20;;;2.17;;
60436;SDS011;46289;51.992;4.498;2023-08-12T10:10:05;4.38;;;1.80;;
60436;SDS011;46289;51.992;4.498;2023-08-12T10:12:15;4.43;;;1.92;;
60436;SDS011;46289;51.992;4.498;2023-08-12T10:14:23;7.68;;;2.25;;
60436;SDS011;46289;51.992;4.498;2023-08-12T10:16:37;7.88;;;2.53;;
60436;SDS011;46289;51.992;4.498;2023-08-12T10:21:19;13.40;;;2.60;;
60436;SDS011;46289;51.992;4.498;2023-08-12T10:23:32;7.35;;;2.35;;
60436;SDS011;46289;51.992;4.498;2023-08-12T10:25:40;8.60;;;2.65;;
60436;SDS011;46289;51.992;4.498;2023-08-12T10:27:57;8.93;;;2.42;;
60436;SDS011;46289;51.992;4.498;2023-08-12T10:30:08;12.25;;;2.80;;
60436;SDS011;46289;51.992;4.498;2023-08-12T10:32:16;5.22;;;2.67;;
60436;SDS011;46289;51.992;4.498;2023-08-12T10:34:22;6.65;;;2.72;;
60436;SDS011;46289;51.992;4.498;2023-08-12T10:36:32;8.32;;;2.20;;
60436;SDS011;46289;51.992;4.498;2023-08-12T10:38:50;5.13;;;2.38;;
60436;SDS011;46289;51.992;4.498;2023-08-12T10:41:17;5.50;;;2.30;;
60436;SDS011;46289;51.992;4.498;2023-08-12T10:43:23;2.72;;;1.85;;
60436;SDS011;46289;51.992;4.498;2023-08-12T10:45:41;10.10;;;2.30;;
60436;SDS011;46289;51.992;4.498;2023-08-12T10:48:09;6.60;;;2.45;;
60436;SDS011;46289;51.992;4.498;2023-08-12T10:50:26;7.35;;;2.70;;
60436;SDS011;46289;51.992;4.498;2023-08-12T10:52:33;8.30;;;2.72;;
60436;SDS011;46289;51.992;4.498;2023-08-12T10:54:53;5.72;;;2.00;;
60436;SDS011;46289;51.992;4.498;2023-08-12T10:57:05;10.68;;;2.72;;
60436;SDS011;46289;51.992;4.498;2023-08-12T10:59:09;9.40;;;2.60;;
60436;SDS011;46289;51.992;4.498;2023-08-12T11:01:49;5.70;;;2.05;;
60436;SDS011;46289;51.992;4.498;2023-08-12T11:03:57;8.45;;;2.55;;
60436;SDS011;46289;51.992;4.498;2023-08-12T11:06:05;8.50;;;2.42;;
60436;SDS011;46289;51.992;4.498;2023-08-12T11:08:11;7.47;;;2.25;;
60436;SDS011;46289;51.992;4.498;2023-08-12T11:10:18;4.40;;;1.92;;
60436;SDS011;46289;51.992;4.498;2023-08-12T11:12:30;8.55;;;2.10;;
60436;SDS011;46289;51.992;4.498;2023-08-12T11:14:45;7.28;;;2.35;;
60436;SDS011;46289;51.992;4.498;2023-08-12T11:16:51;9.98;;;2.50;;
60436;SDS011;46289;51.992;4.498;2023-08-12T11:18:57;7.50;;;2.25;;
60436;SDS011;46289;51.992;4.498;2023-08-12T11:21:06;8.80;;;2.47;;
60436;SDS011;46289;51.992;4.498;2023-08-12T11:23:12;8.48;;;2.65;;
60436;SDS011;46289;51.992;4.498;2023-08-12T11:27:21;5.00;;;2.10;;
60436;SDS011;46289;51.992;4.498;2023-08-12T11:29:24;5.80;;;2.20;;
60436;SDS011;46289;51.992;4.498;2023-08-12T11:31:29;7.78;;;2.45;;
60436;SDS011;46289;51.992;4.498;2023-08-12T11:33:34;10.55;;;2.50;;
60436;SDS011;46289;51.992;4.498;2023-08-12T11:35:40;13.02;;;2.80;;
60436;SDS011;46289;51.992;4.498;2023-08-12T11:37:48;8.88;;;2.45;;
60436;SDS011;46289;51.992;4.498;2023-08-12T11:42:02;9.27;;;3.20;;
60436;SDS011;46289;51.992;4.498;2023-08-12T11:44:05;9.43;;;2.80;;
60436;SDS011;46289;51.992;4.498;2023-08-12T11:46:19;9.32;;;2.80;;
60436;SDS011;46289;51.992;4.498;2023-08-12T11:48:25;7.43;;;2.10;;
60436;SDS011;46289;51.992;4.498;2023-08-12T11:50:31;6.43;;;2.42;;
60436;SDS011;46289;51.992;4.498;2023-08-12T11:52:36;11.85;;;2.83;;
60436;SDS011;46289;51.992;4.498;2023-08-12T11:54:44;7.25;;;2.40;;
60436;SDS011;46289;51.992;4.498;2023-08-12T11:56:50;7.07;;;2.10;;
60436;SDS011;46289;51.992;4.498;2023-08-12T11:58:56;11.60;;;2.65;;
60436;SDS011;46289;51.992;4.498;2023-08-12T12:01:02;8.80;;;2.25;;
60436;SDS011;46289;51.992;4.498;2023-08-12T12:03:07;9.00;;;2.42;;
60436;SDS011;46289;51.992;4.498;2023-08-12T12:05:12;9.73;;;2.10;;
60436;SDS011;46289;51.992;4.498;2023-08-12T12:07:18;11.88;;;2.90;;
60436;SDS011;46289;51.992;4.498;2023-08-12T12:09:21;7.63;;;2.35;;
60436;SDS011;46289;51.992;4.498;2023-08-12T12:11:30;7.95;;;1.70;;
60436;SDS011;46289;51.992;4.498;2023-08-12T12:13:32;9.65;;;2.60;;
60436;SDS011;46289;51.992;4.498;2023-08-12T12:15:48;6.55;;;1.88;;
60436;SDS011;46289;51.992;4.498;2023-08-12T12:17:53;5.95;;;2.58;;
60436;SDS011;46289;51.992;4.498;2023-08-12T12:19:58;9.82;;;2.55;;
60436;SDS011;46289;51.992;4.498;2023-08-12T12:22:16;11.50;;;2.42;;
60436;SDS011;46289;51.992;4.498;2023-08-12T12:24:21;7.70;;;2.90;;
60436;SDS011;46289;51.992;4.498;2023-08-12T12:26:26;7.65;;;2.30;;
60436;SDS011;46289;51.992;4.498;2023-08-12T12:28:35;12.02;;;4.20;;
60436;SDS011;46289;51.992;4.498;2023-08-12T12:30:40;12.00;;;3.85;;
60436;SDS011;46289;51.992;4.498;2023-08-12T12:32:45;8.80;;;3.15;;
60436;SDS011;46289;51.992;4.498;2023-08-12T12:34:53;6.97;;;2.30;;
60436;SDS011;46289;51.992;4.498;2023-08-12T12:36:58;14.10;;;3.00;;
60436;SDS011;46289;51.992;4.498;2023-08-12T12:39:06;5.05;;;2.10;;
60436;SDS011;46289;51.992;4.498;2023-08-12T12:41:12;9.05;;;2.40;;
60436;SDS011;46289;51.992;4.498;2023-08-12T12:43:16;8.13;;;2.30;;
60436;SDS011;46289;51.992;4.498;2023-08-12T12:45:24;9.80;;;2.90;;
60436;SDS011;46289;51.992;4.498;2023-08-12T12:47:29;8.80;;;2.60;;
60436;SDS011;46289;51.992;4.498;2023-08-12T12:49:35;9.35;;;2.53;;
60436;SDS011;46289;51.992;4.498;2023-08-12T12:51:43;9.27;;;3.00;;
60436;SDS011;46289;51.992;4.498;2023-08-12T12:53:48;8.25;;;2.85;;
60436;SDS011;46289;51.992;4.498;2023-08-12T12:55:53;9.88;;;2.78;;
60436;SDS011;46289;51.992;4.498;2023-08-12T12:57:59;8.82;;;2.80;;
60436;SDS011;46289;51.992;4.498;2023-08-12T13:00:04;8.30;;;3.13;;